M I D A S
Marine Information and Data Acquisition System
Tripno 1239 of the Zeeleeuw from 2007-03-26 07:10:47 to 2007-03-26 15:19:56
Back to CruiseResearch ActivitiesStationsMapUnderway DataData graphs

EquipmentUnitsComments
TimeDGPSUTC
LatitudeDGPSDM.mWGS84
LongitudeDGPSDM.mWGS84
SpeedMeteo Stationm/sRelative wind speed
DirectionMeteo StationdegRelative wind direction
TemperatureMeteo Stationdeg CelciusAir temperature
PressureMeteo StationPaAtmospheric pressure
HumidityMeteo Station%Relative humidity
Missing or incorrect values are displayed as -999
Metereological data collected by the RV Zeeleeuw from 2007-03-26 06:50:44 to 2007-03-26 15:31:24
                                                                                    Next 1000 lines
Time Latitude Longitude Speed Direction Temperature Pressure Humidity
2007-03-26 06:50:54 51°13.6 2°56.099 2.3 306 6.6 101900 81
2007-03-26 06:50:59 51°13.6 2°56.099 3.1 321 6.6 101900 81
2007-03-26 06:51:03 51°13.6 2°56.099 2.5 285 6.6 101900 81
2007-03-26 06:51:08 51°13.6 2°56.098 2.2 318 6.6 101900 81
2007-03-26 06:51:13 51°13.6 2°56.097 1.9 321 6.6 101900 81
2007-03-26 06:51:18 51°13.6 2°56.095 1.6 27 6.6 101900 81
2007-03-26 06:51:23 51°13.6 2°56.091 0.9 287 6.6 101900 81
2007-03-26 06:51:27 51°13.6 2°56.088 1.3 19 6.6 101900 81
2007-03-26 06:51:32 51°13.6 2°56.083 2.3 282 6.6 101900 81
2007-03-26 06:51:38 51°13.601 2°56.076 3.2 23 6.6 101900 81
2007-03-26 06:51:43 51°13.601 2°56.069 3.4 286 6.6 101900 81
2007-03-26 06:51:49 51°13.602 2°56.06 2.7 321 6.6 101910 81
2007-03-26 06:51:54 51°13.603 2°56.052 2.6 278 6.6 101910 81
2007-03-26 06:51:59 51°13.604 2°56.042 3.1 26 6.6 101910 81
2007-03-26 06:52:04 51°13.605 2°56.033 1.7 335 6.6 101910 81
2007-03-26 06:52:09 51°13.606 2°56.023 1.5 336 6.6 101910 81
2007-03-26 06:52:14 51°13.607 2°56.013 1.1 306 6.6 101910 81
2007-03-26 06:52:19 51°13.609 2°56.003 1.2 316 6.6 101900 81
2007-03-26 06:52:24 51°13.611 2°55.993 1 -999 6.6 101900 81
2007-03-26 06:52:29 51°13.613 2°55.983 1.4 323 6.6 101910 81
2007-03-26 06:52:34 51°13.616 2°55.973 0.9 287 6.6 101910 81
2007-03-26 06:52:39 51°13.618 2°55.963 1.1 266 6.6 101910 81
2007-03-26 06:52:44 51°13.621 2°55.954 1.1 287 6.6 101910 81
2007-03-26 06:52:49 51°13.625 2°55.944 0.8 253 6.6 101910 81
2007-03-26 06:52:54 51°13.628 2°55.935 1 309 6.6 101910 81
2007-03-26 06:52:59 51°13.632 2°55.926 2.5 29 6.7 101910 81
2007-03-26 06:53:04 51°13.636 2°55.917 2.7 82 6.7 101910 81
2007-03-26 06:53:09 51°13.64 2°55.908 2.4 258 6.7 101910 81
2007-03-26 06:53:14 51°13.644 2°55.899 1.6 280 6.7 101910 81
2007-03-26 06:53:19 51°13.649 2°55.89 2.7 267 6.7 101910 81
2007-03-26 06:53:24 51°13.653 2°55.882 2.9 -999 6.7 101910 81
2007-03-26 06:53:29 51°13.658 2°55.873 3.4 23 6.7 101910 81
2007-03-26 06:53:34 51°13.662 2°55.865 2.6 281 6.7 101910 81
2007-03-26 06:53:39 51°13.668 2°55.856 1.9 267 6.7 101900 81
2007-03-26 06:53:44 51°13.673 2°55.847 2.3 286 6.7 101900 81
2007-03-26 06:53:49 51°13.679 2°55.839 3.6 247 6.7 101910 81
2007-03-26 06:53:54 51°13.684 2°55.83 2.6 282 6.7 101910 81
2007-03-26 06:53:59 51°13.69 2°55.821 1.6 268 6.7 101910 81
2007-03-26 06:54:04 51°13.696 2°55.812 3 284 6.7 101910 81
2007-03-26 06:54:09 51°13.702 2°55.804 3.9 257 6.7 101910 81
2007-03-26 06:54:14 51°13.707 2°55.797 4.1 280 6.7 101910 81
2007-03-26 06:54:19 51°13.713 2°55.789 3.3 267 6.7 101910 81
2007-03-26 06:54:24 51°13.718 2°55.781 2.4 -999 6.7 101910 81
2007-03-26 06:54:29 51°13.723 2°55.773 2.2 269 6.7 101910 81
2007-03-26 06:54:34 51°13.728 2°55.765 1.9 286 6.7 101910 81
2007-03-26 06:54:39 51°13.733 2°55.758 1.9 30 6.7 101910 81
2007-03-26 06:54:44 51°13.737 2°55.75 1.6 284 6.7 101910 81
2007-03-26 06:54:49 51°13.741 2°55.743 0.8 265 6.7 101910 81
2007-03-26 06:54:54 51°13.745 2°55.737 2.6 313 6.7 101910 81
2007-03-26 06:54:59 51°13.749 2°55.731 2.2 261 6.7 101910 81
2007-03-26 06:55:04 51°13.752 2°55.725 3.1 310 6.7 101910 81
2007-03-26 06:55:08 51°13.755 2°55.72 2.7 25 6.7 101910 81
2007-03-26 06:55:14 51°13.758 2°55.715 2.6 311 6.7 101910 81
2007-03-26 06:55:18 51°13.759 2°55.712 2.7 27 6.7 101910 81
2007-03-26 06:55:23 51°13.761 2°55.709 2.1 304 6.7 101910 81
2007-03-26 06:55:28 51°13.762 2°55.707 2.3 327 6.7 101910 81
2007-03-26 06:55:33 51°13.763 2°55.706 4.5 310 6.7 101910 81
2007-03-26 06:55:39 51°13.764 2°55.706 4.6 322 6.7 101910 81
2007-03-26 06:55:44 51°13.764 2°55.707 4.7 331 6.7 101910 81
2007-03-26 06:55:49 51°13.765 2°55.708 4.4 331 6.7 101910 81
2007-03-26 06:55:54 51°13.765 2°55.708 3.7 333 6.7 101910 81
2007-03-26 06:55:59 51°13.766 2°55.707 3.3 337 6.7 101910 81
2007-03-26 06:56:03 51°13.766 2°55.706 2.6 337 6.7 101910 81
2007-03-26 06:56:08 51°13.766 2°55.703 2.7 348 6.7 101910 81
2007-03-26 06:56:13 51°13.765 2°55.699 2.5 344 6.7 101910 81
2007-03-26 06:56:18 51°13.765 2°55.695 1.6 337 6.7 101910 80
2007-03-26 06:56:23 51°13.764 2°55.69 1 342 6.7 101910 80
2007-03-26 06:56:28 51°13.763 2°55.685 2.7 348 6.7 101910 80
2007-03-26 06:56:34 51°13.762 2°55.68 2.1 359 6.7 101910 80
2007-03-26 06:56:39 51°13.762 2°55.677 1.7 340 6.7 101910 80
2007-03-26 06:56:44 51°13.761 2°55.674 2.1 345 6.7 101910 80
2007-03-26 06:56:49 51°13.761 2°55.672 2.3 350 6.7 101910 80
2007-03-26 06:56:54 51°13.761 2°55.671 4 355 6.7 101910 80
2007-03-26 06:56:59 51°13.762 2°55.671 3.9 353 6.7 101910 80
2007-03-26 06:57:04 51°13.763 2°55.671 4.4 347 6.7 101910 80
2007-03-26 06:57:09 51°13.764 2°55.672 4.4 350 6.7 101910 80
2007-03-26 06:57:14 51°13.766 2°55.674 4.1 359 6.7 101910 80
2007-03-26 06:57:19 51°13.769 2°55.675 5.8 354 6.7 101910 80
2007-03-26 06:57:23 51°13.771 2°55.676 4.3 1 6.7 101910 80
2007-03-26 06:57:28 51°13.775 2°55.677 3 5 6.7 101910 80
2007-03-26 06:57:33 51°13.779 2°55.678 5.6 7 6.7 101910 80
2007-03-26 06:57:38 51°13.783 2°55.677 4.6 16 6.7 101900 80
2007-03-26 06:57:43 51°13.788 2°55.676 5.5 18 6.7 101900 80
2007-03-26 06:57:47 51°13.792 2°55.675 4.3 18 6.7 101900 80
2007-03-26 06:57:52 51°13.797 2°55.672 3.2 355 6.7 101900 80
2007-03-26 06:57:57 51°13.803 2°55.669 3.4 353 6.7 101900 80
2007-03-26 06:58:02 51°13.809 2°55.665 2.1 359 6.7 101900 80
2007-03-26 06:58:07 51°13.816 2°55.66 2.9 349 6.7 101900 80
2007-03-26 06:58:11 51°13.821 2°55.656 2.7 350 6.7 101900 80
2007-03-26 06:58:16 51°13.828 2°55.65 2.5 334 6.7 101910 80
2007-03-26 06:58:21 51°13.836 2°55.644 2.3 337 6.7 101910 80
2007-03-26 06:58:26 51°13.844 2°55.638 3 332 6.7 101910 80
2007-03-26 06:58:31 51°13.852 2°55.631 3.2 345 6.7 101910 80
2007-03-26 06:58:35 51°13.859 2°55.626 3.3 347 6.7 101910 80
2007-03-26 06:58:41 51°13.869 2°55.617 3.1 6 6.7 101910 80
2007-03-26 06:58:46 51°13.878 2°55.61 4.4 355 6.7 101910 80
2007-03-26 06:58:51 51°13.887 2°55.602 5.2 354 6.7 101910 80
2007-03-26 06:58:56 51°13.897 2°55.594 5.6 -999 6.8 101910 80
2007-03-26 06:59:00 51°13.904 2°55.588 3.9 360 6.8 101910 80
2007-03-26 06:59:06 51°13.916 2°55.579 4 4 6.8 101910 80
2007-03-26 06:59:11 51°13.926 2°55.571 3.4 358 6.8 101910 80
2007-03-26 06:59:15 51°13.934 2°55.565 3.6 355 6.8 101900 80
2007-03-26 06:59:20 51°13.944 2°55.557 3.5 350 6.8 101900 80
2007-03-26 06:59:26 51°13.956 2°55.548 3.6 8 6.8 101900 80
2007-03-26 06:59:31 51°13.967 2°55.54 4.5 8 6.8 101900 80
2007-03-26 06:59:35 51°13.975 2°55.533 4.2 10 6.8 101900 80
2007-03-26 06:59:40 51°13.986 2°55.526 3.7 356 6.8 101900 80
2007-03-26 06:59:46 51°13.998 2°55.516 2.9 2 6.8 101900 80
2007-03-26 06:59:51 51°14.008 2°55.508 2.4 355 6.8 101900 80
2007-03-26 06:59:56 51°14.019 2°55.5 3.3 356 6.8 101900 80
2007-03-26 07:00:00 51°14.028 2°55.494 4.5 11 6.8 101900 80
2007-03-26 07:00:06 51°14.04 2°55.485 3.7 5 6.8 101900 80
2007-03-26 07:00:11 51°14.051 2°55.478 4 350 6.8 101900 80
2007-03-26 07:00:16 51°14.063 2°55.469 4.1 351 6.8 101900 80
2007-03-26 07:00:21 51°14.074 2°55.461 4.8 351 6.8 101900 80
2007-03-26 07:00:26 51°14.086 2°55.453 4.6 355 6.8 101910 80
2007-03-26 07:00:31 51°14.098 2°55.444 4.4 346 6.8 101910 80
2007-03-26 07:00:36 51°14.111 2°55.435 3.8 343 6.8 101900 80
2007-03-26 07:00:41 51°14.124 2°55.426 4.1 346 6.8 101900 80
2007-03-26 07:00:46 51°14.136 2°55.416 5.9 351 6.8 101900 80
2007-03-26 07:00:51 51°14.149 2°55.405 4.8 4 6.8 101900 80
2007-03-26 07:00:56 51°14.163 2°55.394 4.8 360 6.8 101900 80
2007-03-26 07:01:02 51°14.178 2°55.379 3.7 3 6.8 101900 80
2007-03-26 07:01:07 51°14.191 2°55.365 3.6 352 6.8 101900 80
2007-03-26 07:01:12 51°14.203 2°55.35 4 354 6.8 101900 80
2007-03-26 07:01:17 51°14.216 2°55.335 4.3 1 6.8 101900 80
2007-03-26 07:01:23 51°14.23 2°55.315 3.6 6 6.8 101900 80
2007-03-26 07:01:27 51°14.239 2°55.301 3.5 358 6.8 101900 80
2007-03-26 07:01:33 51°14.253 2°55.279 3.1 355 6.8 101900 80
2007-03-26 07:01:38 51°14.264 2°55.261 4.1 356 6.8 101900 80
2007-03-26 07:01:43 51°14.275 2°55.242 3.2 356 6.8 101900 80
2007-03-26 07:01:48 51°14.286 2°55.223 4.1 358 6.8 101900 80
2007-03-26 07:01:52 51°14.295 2°55.207 5 356 6.8 101900 80
2007-03-26 07:01:57 51°14.305 2°55.187 5 -999 6.8 101910 80
2007-03-26 07:02:02 51°14.315 2°55.167 4.9 355 6.8 101910 80
2007-03-26 07:02:07 51°14.326 2°55.147 3.5 353 6.8 101900 80
2007-03-26 07:02:11 51°14.334 2°55.131 4.8 3 6.8 101900 80
2007-03-26 07:02:16 51°14.345 2°55.111 3.6 9 6.9 101900 80
2007-03-26 07:02:21 51°14.356 2°55.092 3.8 359 6.9 101900 80
2007-03-26 07:02:26 51°14.368 2°55.073 4.5 356 6.9 101890 80
2007-03-26 07:02:30 51°14.377 2°55.057 4 344 6.9 101890 80
2007-03-26 07:02:36 51°14.392 2°55.035 4.2 353 6.9 101900 80
2007-03-26 07:02:40 51°14.402 2°55.02 5.1 359 6.9 101900 80
2007-03-26 07:02:46 51°14.419 2°54.999 4.9 358 6.9 101900 80
2007-03-26 07:02:51 51°14.434 2°54.983 6.3 7 6.9 101900 80
2007-03-26 07:02:56 51°14.449 2°54.968 5.7 6 6.9 101900 80
2007-03-26 07:03:01 51°14.465 2°54.955 6.3 5 6.9 101900 80
2007-03-26 07:03:05 51°14.478 2°54.946 7.8 3 6.9 101900 80
2007-03-26 07:03:10 51°14.495 2°54.933 7.7 3 6.9 101900 80
2007-03-26 07:03:15 51°14.512 2°54.922 7.5 3 7 101900 80
2007-03-26 07:03:21 51°14.532 2°54.908 6.9 6 7 101900 80
2007-03-26 07:03:26 51°14.55 2°54.897 7.2 7 7 101890 80
2007-03-26 07:03:31 51°14.567 2°54.886 7.1 3 7 101890 80
2007-03-26 07:03:35 51°14.581 2°54.878 8.8 356 7 101890 80
2007-03-26 07:03:41 51°14.602 2°54.866 8.6 357 7 101890 80
2007-03-26 07:03:46 51°14.621 2°54.86 8.1 355 7 101890 80
2007-03-26 07:03:51 51°14.639 2°54.855 9.5 352 7 101890 80
2007-03-26 07:03:55 51°14.654 2°54.852 10.7 354 7.1 101890 80
2007-03-26 07:04:00 51°14.673 2°54.851 9.8 355 7.1 101890 80
2007-03-26 07:04:06 51°14.695 2°54.848 10.7 357 7.1 101890 80
2007-03-26 07:04:11 51°14.714 2°54.846 9.4 354 7.1 101890 80
2007-03-26 07:04:15 51°14.729 2°54.844 10.8 356 7.1 101880 80
2007-03-26 07:04:20 51°14.748 2°54.842 9.8 357 7.1 101880 80
2007-03-26 07:04:26 51°14.771 2°54.838 10.8 -999 7.1 101890 80
2007-03-26 07:04:31 51°14.79 2°54.834 10.4 358 7.1 101890 80
2007-03-26 07:04:36 51°14.808 2°54.829 10.1 358 7.1 101880 80
2007-03-26 07:04:41 51°14.827 2°54.825 10.4 356 7.1 101880 80
2007-03-26 07:04:46 51°14.846 2°54.819 9.7 359 7.2 101880 80
2007-03-26 07:04:51 51°14.864 2°54.814 10.1 356 7.2 101880 80
2007-03-26 07:04:56 51°14.883 2°54.808 10.1 357 7.2 101880 80
2007-03-26 07:05:01 51°14.901 2°54.802 11.1 358 7.2 101880 80
2007-03-26 07:05:06 51°14.92 2°54.796 10.7 358 7.2 101880 80
2007-03-26 07:05:10 51°14.935 2°54.792 10.1 357 7.2 101880 80
2007-03-26 07:05:16 51°14.957 2°54.785 10.6 358 7.2 101870 80
2007-03-26 07:05:21 51°14.976 2°54.779 10.9 359 7.2 101870 80
2007-03-26 07:05:26 51°14.995 2°54.773 9.6 358 7.2 101880 80
2007-03-26 07:05:30 51°15.01 2°54.769 9.9 359 7.2 101880 80
2007-03-26 07:05:35 51°15.029 2°54.763 10 1 7.3 101880 80
2007-03-26 07:05:41 51°15.051 2°54.756 9.6 1 7.3 101880 80
2007-03-26 07:05:46 51°15.07 2°54.75 10 359 7.3 101880 80
2007-03-26 07:05:51 51°15.088 2°54.745 10.2 358 7.3 101880 80
2007-03-26 07:05:55 51°15.103 2°54.74 10.3 358 7.3 101880 80
2007-03-26 07:06:00 51°15.122 2°54.735 10 357 7.3 101880 80
2007-03-26 07:06:06 51°15.144 2°54.728 11 358 7.3 101880 80
2007-03-26 07:06:11 51°15.163 2°54.722 10.3 359 7.3 101880 80
2007-03-26 07:06:15 51°15.178 2°54.717 11.4 359 7.3 101880 80
2007-03-26 07:06:20 51°15.197 2°54.711 10.1 358 7.3 101880 80
2007-03-26 07:06:26 51°15.219 2°54.704 10 355 7.3 101880 80
2007-03-26 07:06:31 51°15.238 2°54.697 10.9 358 7.3 101880 80
2007-03-26 07:06:36 51°15.256 2°54.689 10 357 7.3 101880 80
2007-03-26 07:06:40 51°15.271 2°54.684 9.9 358 7.3 101880 80
2007-03-26 07:06:46 51°15.293 2°54.675 9.9 356 7.4 101880 80
2007-03-26 07:06:51 51°15.312 2°54.668 10.7 357 7.4 101880 80
2007-03-26 07:06:56 51°15.33 2°54.661 9.6 355 7.4 101880 80
2007-03-26 07:07:01 51°15.348 2°54.654 10.1 356 7.4 101880 80
2007-03-26 07:07:06 51°15.367 2°54.647 9.9 354 7.4 101880 80
2007-03-26 07:07:11 51°15.385 2°54.641 10.7 357 7.4 101880 80
2007-03-26 07:07:16 51°15.404 2°54.634 11.7 357 7.4 101890 80
2007-03-26 07:07:21 51°15.422 2°54.628 11.3 1 7.4 101890 80
2007-03-26 07:07:26 51°15.441 2°54.621 10.7 359 7.4 101880 80
2007-03-26 07:07:30 51°15.456 2°54.616 10.2 357 7.4 101880 80
2007-03-26 07:07:35 51°15.474 2°54.61 10.1 354 7.4 101890 80
2007-03-26 07:07:41 51°15.496 2°54.602 10 354 7.4 101890 80
2007-03-26 07:07:46 51°15.515 2°54.596 10.1 357 7.4 101880 80
2007-03-26 07:07:51 51°15.533 2°54.59 10.4 354 7.4 101880 80
2007-03-26 07:07:55 51°15.548 2°54.585 9.6 356 7.4 101870 80
2007-03-26 07:08:01 51°15.57 2°54.577 10.4 356 7.4 101870 80
2007-03-26 07:08:06 51°15.589 2°54.571 10.2 354 7.5 101880 81
2007-03-26 07:08:11 51°15.607 2°54.565 11.3 355 7.5 101880 81
2007-03-26 07:08:15 51°15.622 2°54.561 10.9 354 7.5 101890 81
2007-03-26 07:08:20 51°15.641 2°54.555 11.8 354 7.5 101890 81
2007-03-26 07:08:26 51°15.663 2°54.548 11.3 355 7.5 101880 81
2007-03-26 07:08:31 51°15.682 2°54.542 11.6 356 7.5 101880 81
2007-03-26 07:08:36 51°15.701 2°54.537 11 355 7.5 101890 81
2007-03-26 07:08:39 51°15.712 2°54.533 11.9 355 7.5 101890 81
2007-03-26 07:08:46 51°15.738 2°54.525 11.2 357 7.5 101890 81
2007-03-26 07:08:51 51°15.757 2°54.52 11.7 357 7.5 101890 81
2007-03-26 07:08:56 51°15.776 2°54.514 12.3 355 7.5 101880 81
2007-03-26 07:09:00 51°15.791 2°54.51 11.4 358 7.5 101880 81
2007-03-26 07:09:06 51°15.813 2°54.503 12.3 356 7.5 101870 81
2007-03-26 07:09:11 51°15.832 2°54.497 11.1 356 7.5 101870 81
2007-03-26 07:09:16 51°15.85 2°54.492 11.6 354 7.5 101870 81
2007-03-26 07:09:21 51°15.867 2°54.487 11.9 358 7.5 101870 81
2007-03-26 07:09:26 51°15.883 2°54.482 11.9 358 7.5 101870 81
2007-03-26 07:09:31 51°15.899 2°54.477 12 358 7.5 101870 81
2007-03-26 07:09:36 51°15.914 2°54.473 10.4 2 7.5 101870 81
2007-03-26 07:09:41 51°15.928 2°54.47 10.5 3 7.5 101870 81
2007-03-26 07:09:46 51°15.942 2°54.466 10.9 359 7.5 101880 81
2007-03-26 07:09:50 51°15.953 2°54.464 8.4 3 7.5 101880 81
2007-03-26 07:09:56 51°15.968 2°54.46 7.6 5 7.5 101880 81
2007-03-26 07:10:01 51°15.981 2°54.458 8.8 4 7.5 101880 81
2007-03-26 07:10:06 51°15.993 2°54.455 7.9 5 7.5 101880 81
2007-03-26 07:10:11 51°16.005 2°54.453 7.6 3 7.5 101880 81
2007-03-26 07:10:15 51°16.014 2°54.451 8.3 3 7.5 101890 81
2007-03-26 07:10:21 51°16.027 2°54.448 8 3 7.5 101890 81
2007-03-26 07:10:26 51°16.038 2°54.446 9.4 8 7.5 101890 81
2007-03-26 07:10:31 51°16.048 2°54.444 7.9 2 7.5 101890 81
2007-03-26 07:10:35 51°16.056 2°54.442 8.2 5 7.5 101890 81
2007-03-26 07:10:40 51°16.066 2°54.44 7.9 7 7.5 101890 81
2007-03-26 07:10:46 51°16.077 2°54.437 8.6 9 7.5 101890 81
2007-03-26 07:10:51 51°16.086 2°54.435 8.3 8 7.5 101890 81
2007-03-26 07:10:56 51°16.095 2°54.433 8.8 8 7.5 101890 81
2007-03-26 07:11:00 51°16.102 2°54.431 8.7 9 7.5 101890 81
2007-03-26 07:11:06 51°16.111 2°54.429 5.9 6 7.5 101890 81
2007-03-26 07:11:11 51°16.119 2°54.427 8.9 8 7.5 101890 81
2007-03-26 07:11:16 51°16.127 2°54.425 6.8 8 7.5 101890 81
2007-03-26 07:11:20 51°16.133 2°54.424 9 8 7.5 101890 81
2007-03-26 07:11:26 51°16.142 2°54.422 9.3 10 7.5 101890 81
2007-03-26 07:11:31 51°16.149 2°54.421 8.1 14 7.5 101890 81
2007-03-26 07:11:36 51°16.156 2°54.419 8.1 15 7.5 101900 81
2007-03-26 07:11:41 51°16.162 2°54.417 7 11 7.5 101900 81
2007-03-26 07:11:46 51°16.168 2°54.414 7.2 16 7.5 101900 81
2007-03-26 07:11:51 51°16.173 2°54.411 7 21 7.5 101900 81
2007-03-26 07:11:56 51°16.179 2°54.408 8.1 23 7.6 101900 81
2007-03-26 07:12:01 51°16.183 2°54.404 8.2 25 7.6 101900 81
2007-03-26 07:12:06 51°16.188 2°54.401 7.4 28 7.6 101900 81
2007-03-26 07:12:10 51°16.191 2°54.397 6.9 26 7.6 101900 81
2007-03-26 07:12:15 51°16.195 2°54.393 6.9 27 7.6 101900 81
2007-03-26 07:12:21 51°16.199 2°54.388 6.4 29 7.6 101900 81
2007-03-26 07:12:26 51°16.203 2°54.384 6.2 28 7.6 101900 81
2007-03-26 07:12:31 51°16.206 2°54.379 6.8 31 7.6 101900 81
2007-03-26 07:12:35 51°16.209 2°54.375 6.7 30 7.6 101910 81
2007-03-26 07:12:40 51°16.212 2°54.371 6.1 32 7.6 101910 81
2007-03-26 07:12:46 51°16.215 2°54.366 6.4 31 7.6 101910 81
2007-03-26 07:12:51 51°16.218 2°54.363 6.9 32 7.6 101910 81
2007-03-26 07:12:55 51°16.221 2°54.36 6.8 31 7.6 101910 81
2007-03-26 07:13:00 51°16.223 2°54.357 8.6 33 7.6 101910 81
2007-03-26 07:13:06 51°16.226 2°54.354 7.2 32 7.6 101900 81
2007-03-26 07:13:11 51°16.228 2°54.352 7.5 30 7.6 101900 81
2007-03-26 07:13:15 51°16.23 2°54.35 7.2 24 7.6 101910 81
2007-03-26 07:13:20 51°16.231 2°54.349 7.1 25 7.6 101910 81
2007-03-26 07:13:26 51°16.232 2°54.349 7.3 27 7.6 101910 81
2007-03-26 07:13:31 51°16.233 2°54.349 7.7 28 7.6 101910 81
2007-03-26 07:13:35 51°16.233 2°54.349 7.6 27 7.6 101910 81
2007-03-26 07:13:41 51°16.234 2°54.349 7.6 29 7.6 101910 81
2007-03-26 07:13:46 51°16.235 2°54.349 7.5 27 7.6 101900 81
2007-03-26 07:13:51 51°16.235 2°54.349 8.2 27 7.6 101900 81
2007-03-26 07:13:56 51°16.236 2°54.349 7.3 27 7.6 101910 81
2007-03-26 07:14:01 51°16.236 2°54.349 7.7 29 7.6 101910 81
2007-03-26 07:14:05 51°16.236 2°54.349 7.6 26 7.7 101910 81
2007-03-26 07:14:10 51°16.237 2°54.349 7.2 27 7.7 101910 81
2007-03-26 07:14:15 51°16.237 2°54.349 7.7 26 7.7 101900 81
2007-03-26 07:14:21 51°16.238 2°54.349 7.4 32 7.7 101900 81
2007-03-26 07:14:26 51°16.238 2°54.349 6.6 28 7.7 101900 81
2007-03-26 07:14:31 51°16.239 2°54.349 6.7 29 7.7 101900 81
2007-03-26 07:14:35 51°16.239 2°54.348 7.7 28 7.7 101900 81
2007-03-26 07:14:41 51°16.239 2°54.348 7.8 30 7.7 101900 81
2007-03-26 07:14:46 51°16.24 2°54.348 7.7 29 7.7 101910 81
2007-03-26 07:14:51 51°16.24 2°54.348 7.3 29 7.7 101910 81
2007-03-26 07:14:55 51°16.241 2°54.348 7.5 30 7.7 101910 81
2007-03-26 07:15:00 51°16.241 2°54.348 7.6 29 7.7 101910 81
2007-03-26 07:15:06 51°16.242 2°54.348 7.2 32 7.7 101910 81
2007-03-26 07:15:11 51°16.242 2°54.348 7.7 29 7.7 101910 81
2007-03-26 07:15:15 51°16.242 2°54.348 8.1 35 7.7 101900 81
2007-03-26 07:15:20 51°16.243 2°54.348 7 28 7.7 101900 81
2007-03-26 07:15:26 51°16.243 2°54.348 7.2 29 7.7 101910 81
2007-03-26 07:15:31 51°16.243 2°54.348 6.6 35 7.7 101910 81
2007-03-26 07:15:36 51°16.244 2°54.348 7.5 30 7.7 101900 81
2007-03-26 07:15:41 51°16.244 2°54.347 8.3 29 7.7 101900 81
2007-03-26 07:15:46 51°16.245 2°54.348 7.8 30 7.7 101900 81
2007-03-26 07:15:51 51°16.245 2°54.347 8.9 34 7.7 101900 81
2007-03-26 07:15:56 51°16.245 2°54.347 8.3 30 7.7 101910 81
2007-03-26 07:16:01 51°16.246 2°54.347 8.3 32 7.7 101910 81
2007-03-26 07:16:06 51°16.246 2°54.347 7.7 33 7.7 101900 81
2007-03-26 07:16:11 51°16.246 2°54.347 7.2 30 7.7 101900 81
2007-03-26 07:16:16 51°16.247 2°54.347 7.2 33 7.7 101900 81
2007-03-26 07:16:21 51°16.247 2°54.347 7.1 34 7.7 101900 81
2007-03-26 07:16:26 51°16.248 2°54.347 7.2 30 7.7 101900 80
2007-03-26 07:16:31 51°16.248 2°54.347 7.8 32 7.7 101900 80
2007-03-26 07:16:35 51°16.249 2°54.346 7.3 31 7.7 101910 80
2007-03-26 07:16:41 51°16.249 2°54.346 7.6 29 7.7 101910 80
2007-03-26 07:16:46 51°16.25 2°54.346 6.2 31 7.7 101910 80
2007-03-26 07:16:51 51°16.25 2°54.346 7 30 7.7 101910 80
2007-03-26 07:16:55 51°16.25 2°54.346 7.3 28 7.7 101900 80
2007-03-26 07:17:01 51°16.251 2°54.345 7.3 32 7.7 101900 80
2007-03-26 07:17:06 51°16.251 2°54.345 7.1 32 7.7 101900 81
2007-03-26 07:17:11 51°16.251 2°54.345 7.4 27 7.7 101900 81
2007-03-26 07:17:15 51°16.252 2°54.345 6.7 28 7.7 101910 81
2007-03-26 07:17:20 51°16.252 2°54.345 6.5 26 7.7 101910 81
2007-03-26 07:17:26 51°16.253 2°54.345 6.8 31 7.7 101900 80
2007-03-26 07:17:31 51°16.253 2°54.344 6.9 32 7.7 101900 80
2007-03-26 07:17:35 51°16.254 2°54.344 7.5 28 7.8 101910 80
2007-03-26 07:17:40 51°16.254 2°54.344 8 27 7.8 101910 80
2007-03-26 07:17:46 51°16.254 2°54.344 7.6 33 7.8 101910 80
2007-03-26 07:17:51 51°16.255 2°54.344 7.1 23 7.8 101910 80
2007-03-26 07:17:56 51°16.255 2°54.343 7.9 29 7.8 101900 80
2007-03-26 07:18:01 51°16.256 2°54.343 7.6 31 7.8 101900 80
2007-03-26 07:18:06 51°16.256 2°54.343 7.6 30 7.8 101900 81
2007-03-26 07:18:11 51°16.257 2°54.342 8.5 33 7.8 101900 81
2007-03-26 07:18:16 51°16.257 2°54.342 7.1 31 7.8 101910 81
2007-03-26 07:18:21 51°16.257 2°54.342 6.7 30 7.8 101910 81
2007-03-26 07:18:26 51°16.258 2°54.342 7 29 7.8 101910 80
2007-03-26 07:18:30 51°16.258 2°54.342 7.5 31 7.8 101910 80
2007-03-26 07:18:36 51°16.259 2°54.342 6.8 31 7.8 101900 80
2007-03-26 07:18:41 51°16.259 2°54.342 6.7 30 7.8 101900 80
2007-03-26 07:18:46 51°16.26 2°54.342 7.2 29 7.8 101910 81
2007-03-26 07:18:50 51°16.26 2°54.342 6.9 27 7.8 101910 81
2007-03-26 07:18:55 51°16.261 2°54.341 6.7 25 7.8 101900 80
2007-03-26 07:19:01 51°16.261 2°54.341 7.1 34 7.8 101900 80
2007-03-26 07:19:06 51°16.262 2°54.341 6.6 31 7.8 101900 80
2007-03-26 07:19:11 51°16.262 2°54.341 6.2 30 7.8 101900 80
2007-03-26 07:19:15 51°16.262 2°54.341 6.5 30 7.8 101910 81
2007-03-26 07:19:21 51°16.263 2°54.34 6.9 24 7.8 101910 81
2007-03-26 07:19:26 51°16.263 2°54.34 6.9 31 7.8 101900 81
2007-03-26 07:19:31 51°16.263 2°54.34 7.8 24 7.8 101900 81
2007-03-26 07:19:35 51°16.264 2°54.34 7.5 28 7.8 101900 81
2007-03-26 07:19:40 51°16.264 2°54.34 7.3 25 7.8 101900 81
2007-03-26 07:19:46 51°16.265 2°54.34 7.9 29 7.8 101910 81
2007-03-26 07:19:51 51°16.265 2°54.339 7.1 24 7.8 101910 81
2007-03-26 07:19:55 51°16.266 2°54.339 6.9 27 7.8 101900 81
2007-03-26 07:20:01 51°16.266 2°54.339 6.8 31 7.8 101900 81
2007-03-26 07:20:06 51°16.266 2°54.339 7.2 24 7.8 101900 81
2007-03-26 07:20:11 51°16.267 2°54.339 8 28 7.8 101900 81
2007-03-26 07:20:16 51°16.267 2°54.339 7.8 29 7.8 101900 81
2007-03-26 07:20:21 51°16.268 2°54.338 8.6 29 7.8 101900 81
2007-03-26 07:20:25 51°16.268 2°54.338 8.4 27 7.8 101910 81
2007-03-26 07:20:31 51°16.269 2°54.338 7.4 27 7.8 101910 81
2007-03-26 07:20:36 51°16.269 2°54.338 7.1 28 7.8 101900 81
2007-03-26 07:20:41 51°16.269 2°54.337 7.3 25 7.8 101900 81
2007-03-26 07:20:46 51°16.27 2°54.337 7.6 28 7.8 101910 81
2007-03-26 07:20:50 51°16.271 2°54.337 7.5 27 7.8 101910 81
2007-03-26 07:20:56 51°16.271 2°54.337 6.6 26 7.8 101910 81
2007-03-26 07:21:01 51°16.271 2°54.337 7.3 28 7.8 101910 81
2007-03-26 07:21:06 51°16.272 2°54.337 6.6 28 7.8 101900 81
2007-03-26 07:21:11 51°16.272 2°54.337 6.3 26 7.8 101900 81
2007-03-26 07:21:15 51°16.273 2°54.337 6 28 7.8 101900 81
2007-03-26 07:21:21 51°16.273 2°54.337 7.1 28 7.8 101900 81
2007-03-26 07:21:26 51°16.274 2°54.337 7.9 29 7.9 101900 81
2007-03-26 07:21:31 51°16.274 2°54.336 6.8 27 7.9 101900 81
2007-03-26 07:21:35 51°16.274 2°54.336 7.8 27 7.9 101910 81
2007-03-26 07:21:41 51°16.275 2°54.336 7.5 28 7.9 101910 81
2007-03-26 07:21:46 51°16.275 2°54.336 8.2 26 7.9 101910 81
2007-03-26 07:21:51 51°16.275 2°54.336 7.4 26 7.9 101910 81
2007-03-26 07:21:55 51°16.276 2°54.336 7 26 7.9 101910 81
2007-03-26 07:21:59 51°16.276 2°54.336 8.5 25 7.9 101910 81
2007-03-26 07:22:06 51°16.277 2°54.335 7.7 27 7.9 101900 80
2007-03-26 07:22:11 51°16.277 2°54.335 8.1 25 7.9 101900 80
2007-03-26 07:22:15 51°16.277 2°54.335 7.1 28 7.9 101910 80
2007-03-26 07:22:20 51°16.278 2°54.335 7.3 27 7.9 101910 80
2007-03-26 07:22:26 51°16.278 2°54.335 8.3 27 7.9 101910 80
2007-03-26 07:22:31 51°16.278 2°54.334 7.7 24 7.9 101910 80
2007-03-26 07:22:36 51°16.279 2°54.334 7.9 27 7.8 101910 80
2007-03-26 07:22:41 51°16.279 2°54.334 7.2 26 7.8 101910 80
2007-03-26 07:22:46 51°16.279 2°54.334 7.9 24 7.8 101900 80
2007-03-26 07:22:51 51°16.28 2°54.333 7.6 26 7.8 101900 80
2007-03-26 07:22:56 51°16.28 2°54.333 7.9 30 7.8 101910 80
2007-03-26 07:23:01 51°16.281 2°54.333 8.1 25 7.8 101910 80
2007-03-26 07:23:06 51°16.281 2°54.333 7.8 29 7.9 101900 80
2007-03-26 07:23:10 51°16.281 2°54.333 7.6 21 7.9 101900 80
2007-03-26 07:23:16 51°16.281 2°54.333 7.6 26 7.8 101900 80
2007-03-26 07:23:21 51°16.282 2°54.333 8.1 27 7.8 101900 80
2007-03-26 07:23:26 51°16.282 2°54.332 7.9 28 7.8 101900 80
2007-03-26 07:23:31 51°16.282 2°54.332 7.2 23 7.8 101900 80
2007-03-26 07:23:35 51°16.283 2°54.332 7 26 7.8 101910 80
2007-03-26 07:23:41 51°16.283 2°54.332 7.9 26 7.8 101910 80
2007-03-26 07:23:46 51°16.283 2°54.331 7.5 29 7.9 101910 80
2007-03-26 07:23:51 51°16.284 2°54.331 6.9 24 7.9 101910 80
2007-03-26 07:23:55 51°16.284 2°54.331 7.1 27 7.9 101910 80
2007-03-26 07:23:59 51°16.285 2°54.33 7.1 27 7.9 101910 80
2007-03-26 07:24:06 51°16.286 2°54.329 6.5 24 7.9 101910 80
2007-03-26 07:24:11 51°16.288 2°54.327 7.7 28 7.9 101910 80
2007-03-26 07:24:15 51°16.289 2°54.326 6.1 25 7.9 101910 80
2007-03-26 07:24:20 51°16.292 2°54.324 6 21 7.9 101910 80
2007-03-26 07:24:26 51°16.296 2°54.32 7.9 22 7.9 101910 80
2007-03-26 07:24:31 51°16.3 2°54.317 7.5 21 7.9 101910 80
2007-03-26 07:24:35 51°16.304 2°54.314 7.3 22 7.9 101910 80
2007-03-26 07:24:41 51°16.31 2°54.308 7.3 22 7.9 101910 80
2007-03-26 07:24:46 51°16.316 2°54.301 6.8 22 7.9 101900 80
2007-03-26 07:24:51 51°16.323 2°54.293 6.1 21 7.9 101900 80
2007-03-26 07:24:56 51°16.33 2°54.283 6.6 20 7.9 101900 80
2007-03-26 07:25:01 51°16.338 2°54.271 6.3 20 7.9 101900 80
2007-03-26 07:25:05 51°16.344 2°54.26 6.2 18 7.9 101900 79
2007-03-26 07:25:10 51°16.352 2°54.245 5.9 21 7.9 101900 79
2007-03-26 07:25:16 51°16.361 2°54.225 6.2 19 7.9 101910 80
2007-03-26 07:25:21 51°16.369 2°54.207 5.2 17 7.9 101910 80
2007-03-26 07:25:26 51°16.378 2°54.187 5.9 19 7.9 101900 80
2007-03-26 07:25:30 51°16.385 2°54.171 5.7 20 7.9 101900 80
2007-03-26 07:25:35 51°16.393 2°54.15 5.5 18 7.9 101910 80
2007-03-26 07:25:41 51°16.404 2°54.124 5.2 14 7.9 101910 80
2007-03-26 07:25:46 51°16.413 2°54.102 5.6 15 7.9 101910 80
2007-03-26 07:25:50 51°16.42 2°54.083 5.9 13 7.9 101910 80
2007-03-26 07:25:55 51°16.429 2°54.06 5.4 15 7.9 101920 79
2007-03-26 07:26:01 51°16.441 2°54.031 5.6 15 7.9 101920 79
2007-03-26 07:26:06 51°16.451 2°54.007 5.7 7 7.9 101910 79
2007-03-26 07:26:11 51°16.46 2°53.983 5.2 11 7.9 101910 79
2007-03-26 07:26:15 51°16.468 2°53.964 5 14 7.9 101910 79
2007-03-26 07:26:21 51°16.479 2°53.934 5.7 14 7.9 101910 79
2007-03-26 07:26:26 51°16.489 2°53.909 6.1 10 7.9 101900 79
2007-03-26 07:26:31 51°16.498 2°53.884 6.1 9 7.9 101900 79
2007-03-26 07:26:36 51°16.508 2°53.859 4.9 8 7.9 101910 80
2007-03-26 07:26:39 51°16.514 2°53.844 6.3 13 7.9 101910 80
2007-03-26 07:26:46 51°16.528 2°53.809 5.6 9 7.9 101910 80
2007-03-26 07:26:51 51°16.538 2°53.783 6.4 10 7.9 101910 80
2007-03-26 07:26:56 51°16.548 2°53.758 5.9 11 7.9 101900 80
2007-03-26 07:27:01 51°16.558 2°53.733 6.4 11 7.9 101900 80
2007-03-26 07:27:06 51°16.569 2°53.708 5 7 7.9 101910 80
2007-03-26 07:27:11 51°16.579 2°53.682 5.5 4 7.9 101910 80
2007-03-26 07:27:16 51°16.589 2°53.657 6.2 12 8 101900 80
2007-03-26 07:27:21 51°16.599 2°53.632 6.4 12 8 101900 80
2007-03-26 07:27:26 51°16.61 2°53.607 5.1 8 7.9 101920 79
2007-03-26 07:27:31 51°16.619 2°53.581 4.6 9 7.9 101920 79
2007-03-26 07:27:36 51°16.63 2°53.556 6.6 13 7.9 101920 80
2007-03-26 07:27:41 51°16.64 2°53.531 5.4 5 7.9 101920 80
2007-03-26 07:27:46 51°16.649 2°53.506 5.5 8 7.9 101910 80
2007-03-26 07:27:51 51°16.66 2°53.481 5.7 11 7.9 101910 80
2007-03-26 07:27:56 51°16.67 2°53.455 5.7 7 7.9 101910 80
2007-03-26 07:28:01 51°16.679 2°53.429 6.2 15 7.9 101910 80
2007-03-26 07:28:06 51°16.69 2°53.405 6.1 12 7.9 101910 80
2007-03-26 07:28:10 51°16.698 2°53.384 5.8 13 7.9 101910 80
2007-03-26 07:28:15 51°16.708 2°53.358 5.8 11 7.9 101910 80
2007-03-26 07:28:21 51°16.72 2°53.329 6.7 10 7.9 101910 80
2007-03-26 07:28:26 51°16.731 2°53.303 4.7 6 7.9 101920 80
2007-03-26 07:28:31 51°16.741 2°53.278 6.5 10 7.9 101920 80
2007-03-26 07:28:35 51°16.749 2°53.258 6 12 7.9 101910 80
2007-03-26 07:28:40 51°16.76 2°53.234 4.7 11 7.9 101910 80
2007-03-26 07:28:46 51°16.772 2°53.203 5.5 7 8 101920 80
2007-03-26 07:28:51 51°16.784 2°53.179 5.8 6 8 101920 80
2007-03-26 07:28:56 51°16.795 2°53.155 5.8 10 7.9 101910 80
2007-03-26 07:29:00 51°16.804 2°53.136 6.9 9 7.9 101910 80
2007-03-26 07:29:06 51°16.819 2°53.109 5.9 8 7.9 101920 80
2007-03-26 07:29:11 51°16.831 2°53.085 7.5 15 7.9 101920 80
2007-03-26 07:29:16 51°16.843 2°53.062 6.2 9 7.9 101920 80
2007-03-26 07:29:20 51°16.853 2°53.044 6.3 11 7.9 101920 80
2007-03-26 07:29:26 51°16.868 2°53.017 6.3 10 8 101910 80
2007-03-26 07:29:31 51°16.88 2°52.995 7.7 7 8 101910 80
2007-03-26 07:29:36 51°16.892 2°52.972 5.9 7 8 101920 80
2007-03-26 07:29:41 51°16.905 2°52.949 4.7 5 8 101920 80
2007-03-26 07:29:46 51°16.917 2°52.926 6.3 13 8 101900 80
2007-03-26 07:29:50 51°16.926 2°52.907 6.2 8 8 101900 80
2007-03-26 07:29:56 51°16.941 2°52.879 5.9 8 8 101910 80
2007-03-26 07:30:01 51°16.953 2°52.856 6 10 8 101910 80
2007-03-26 07:30:06 51°16.966 2°52.833 5.3 4 8 101910 80
2007-03-26 07:30:11 51°16.979 2°52.809 6.8 9 8 101910 80
2007-03-26 07:30:15 51°16.989 2°52.791 6.8 7 8 101910 80
2007-03-26 07:30:21 51°17.004 2°52.764 7 6 8 101910 80
2007-03-26 07:30:26 51°17.018 2°52.741 6.1 5 8 101920 80
2007-03-26 07:30:31 51°17.031 2°52.719 7.8 11 8 101920 80
2007-03-26 07:30:36 51°17.044 2°52.696 8.2 14 8 101920 80
2007-03-26 07:30:40 51°17.054 2°52.678 6 2 8 101920 80
2007-03-26 07:30:46 51°17.07 2°52.652 7.7 9 8 101910 80
2007-03-26 07:30:51 51°17.083 2°52.63 6.4 7 8 101910 80
2007-03-26 07:30:55 51°17.093 2°52.612 5.3 6 8 101910 80
2007-03-26 07:30:59 51°17.104 2°52.594 7 8 8 101910 80
2007-03-26 07:31:06 51°17.123 2°52.564 5.7 5 8 101910 80
2007-03-26 07:31:11 51°17.137 2°52.543 6 5 8 101910 80
2007-03-26 07:31:16 51°17.152 2°52.523 6.5 4 8 101910 79
2007-03-26 07:31:21 51°17.166 2°52.503 6.2 7 8 101910 79
2007-03-26 07:31:26 51°17.181 2°52.483 6.8 7 8 101910 80
2007-03-26 07:31:31 51°17.196 2°52.464 7.8 5 8 101910 80
2007-03-26 07:31:36 51°17.211 2°52.445 5.6 5 8 101910 80
2007-03-26 07:31:41 51°17.226 2°52.425 6.8 4 8 101910 80
2007-03-26 07:31:46 51°17.241 2°52.406 5.9 7 8 101890 80
2007-03-26 07:31:51 51°17.256 2°52.386 6.3 6 8 101890 80
2007-03-26 07:31:56 51°17.271 2°52.367 7 4 8 101910 80
2007-03-26 07:32:01 51°17.286 2°52.348 5.7 4 8 101910 80
2007-03-26 07:32:06 51°17.301 2°52.329 6.7 357 8.1 101900 80
2007-03-26 07:32:10 51°17.313 2°52.313 7.2 358 8.1 101900 80
2007-03-26 07:32:16 51°17.331 2°52.29 7.1 1 8 101910 80
2007-03-26 07:32:21 51°17.346 2°52.271 6.8 359 8 101910 80
2007-03-26 07:32:26 51°17.361 2°52.251 7.4 358 8.1 101920 80
2007-03-26 07:32:31 51°17.377 2°52.232 7.7 -999 8.1 101920 80
2007-03-26 07:32:36 51°17.392 2°52.213 7.7 359 8.1 101920 80
2007-03-26 07:32:41 51°17.407 2°52.194 8.5 -999 8.1 101920 80
2007-03-26 07:32:46 51°17.422 2°52.174 8 1 8.1 101910 80
2007-03-26 07:32:51 51°17.437 2°52.155 7.9 359 8.1 101910 80
2007-03-26 07:32:55 51°17.449 2°52.139 6.4 2 8.1 101910 81
2007-03-26 07:32:59 51°17.461 2°52.123 7.7 356 8.1 101910 81
2007-03-26 07:33:06 51°17.482 2°52.096 8.5 359 8.1 101920 81
2007-03-26 07:33:11 51°17.497 2°52.077 8.5 -999 8.1 101920 81
2007-03-26 07:33:16 51°17.512 2°52.058 8 -999 8.1 101910 81
2007-03-26 07:33:20 51°17.524 2°52.042 7.7 360 8.1 101910 81
2007-03-26 07:33:26 51°17.542 2°52.019 7.5 3 8.1 101910 81
2007-03-26 07:33:31 51°17.557 2°52 8.5 2 8.1 101910 81
2007-03-26 07:33:36 51°17.572 2°51.981 7.7 3 8.1 101920 81
2007-03-26 07:33:41 51°17.587 2°51.962 8.7 360 8.1 101920 81
2007-03-26 07:33:46 51°17.602 2°51.943 8 359 8.1 101900 81
2007-03-26 07:33:51 51°17.617 2°51.924 7.7 2 8.1 101900 81
2007-03-26 07:33:56 51°17.632 2°51.905 7.7 3 8.1 101910 81
2007-03-26 07:34:01 51°17.647 2°51.886 7.4 3 8.1 101910 81
2007-03-26 07:34:06 51°17.662 2°51.867 8.3 2 8.1 101910 81
2007-03-26 07:34:11 51°17.677 2°51.848 6.7 358 8.1 101910 81
2007-03-26 07:34:16 51°17.692 2°51.828 7.4 2 8.1 101910 82
2007-03-26 07:34:21 51°17.708 2°51.809 6.7 4 8.1 101910 82
2007-03-26 07:34:26 51°17.722 2°51.79 7.8 3 8.1 101910 82
2007-03-26 07:34:31 51°17.737 2°51.771 6.5 3 8.1 101910 82
2007-03-26 07:34:36 51°17.752 2°51.752 7.8 1 8.1 101900 82
2007-03-26 07:34:41 51°17.768 2°51.732 7.1 2 8.1 101900 82
2007-03-26 07:34:46 51°17.783 2°51.714 7 2 8 101910 82
2007-03-26 07:34:50 51°17.794 2°51.698 7.1 7 8 101910 82
2007-03-26 07:34:55 51°17.809 2°51.679 6.4 -999 8.1 101910 82
2007-03-26 07:35:01 51°17.828 2°51.656 8 1 8.1 101910 82
2007-03-26 07:35:06 51°17.843 2°51.638 7.8 6 8 101910 82
2007-03-26 07:35:11 51°17.858 2°51.618 7.2 3 8 101910 82
2007-03-26 07:35:15 51°17.87 2°51.603 7.4 3 8 101920 82
2007-03-26 07:35:21 51°17.889 2°51.58 8 6 8 101920 82
2007-03-26 07:35:26 51°17.904 2°51.561 6.5 2 8 101910 82
2007-03-26 07:35:31 51°17.918 2°51.542 8.1 4 8 101910 82
2007-03-26 07:35:36 51°17.933 2°51.522 7.5 7 8 101910 82
2007-03-26 07:35:40 51°17.945 2°51.507 8.8 2 8 101910 82
2007-03-26 07:35:46 51°17.963 2°51.483 8 1 8 101910 82
2007-03-26 07:35:51 51°17.978 2°51.465 7.2 3 8 101910 82
2007-03-26 07:35:56 51°17.993 2°51.445 7.7 5 8 101920 82
2007-03-26 07:36:01 51°18.008 2°51.426 6.9 2 8 101920 82
2007-03-26 07:36:06 51°18.023 2°51.407 7.7 1 8 101910 82
2007-03-26 07:36:11 51°18.038 2°51.387 7.2 3 8 101910 82
2007-03-26 07:36:16 51°18.053 2°51.368 8.8 1 8 101910 82
2007-03-26 07:36:21 51°18.067 2°51.348 8.8 3 8 101910 82
2007-03-26 07:36:26 51°18.082 2°51.328 7.9 2 8 101910 82
2007-03-26 07:36:31 51°18.096 2°51.308 6.9 4 8 101910 82
2007-03-26 07:36:36 51°18.11 2°51.289 7.1 7 8 101920 82
2007-03-26 07:36:41 51°18.124 2°51.271 6.5 7 8 101920 82
2007-03-26 07:36:46 51°18.137 2°51.255 6.5 8 8 101910 82
2007-03-26 07:36:51 51°18.149 2°51.239 6.5 7 8 101910 82
2007-03-26 07:36:56 51°18.161 2°51.225 7.4 10 8 101920 82
2007-03-26 07:37:01 51°18.173 2°51.211 8.6 11 8 101920 82
2007-03-26 07:37:06 51°18.184 2°51.198 6.8 9 8 101920 82
2007-03-26 07:37:11 51°18.195 2°51.185 8.4 12 8 101920 82
2007-03-26 07:37:15 51°18.203 2°51.176 7.5 10 8 101920 82
2007-03-26 07:37:21 51°18.215 2°51.162 7.7 13 8 101920 82
2007-03-26 07:37:26 51°18.225 2°51.152 7.8 11 8 101920 82
2007-03-26 07:37:31 51°18.235 2°51.141 7.6 15 8 101920 82
2007-03-26 07:37:35 51°18.242 2°51.132 8.2 15 8 101910 82
2007-03-26 07:37:41 51°18.254 2°51.121 7.6 15 8 101910 82
2007-03-26 07:37:46 51°18.264 2°51.111 7.7 9 8 101920 82
2007-03-26 07:37:51 51°18.273 2°51.102 8.1 11 8 101920 82
2007-03-26 07:37:56 51°18.283 2°51.093 7.9 12 8.1 101930 82
2007-03-26 07:38:00 51°18.29 2°51.086 7.6 15 8.1 101930 82
2007-03-26 07:38:06 51°18.301 2°51.076 8.3 11 8.1 101920 82
2007-03-26 07:38:11 51°18.309 2°51.068 8.3 14 8.1 101920 82
2007-03-26 07:38:16 51°18.318 2°51.061 7.2 12 8.1 101920 82
2007-03-26 07:38:20 51°18.324 2°51.055 6.9 8 8.1 101920 82
2007-03-26 07:38:26 51°18.334 2°51.048 9.3 11 8.1 101920 82
2007-03-26 07:38:31 51°18.343 2°51.043 8.6 9 8.1 101920 82
2007-03-26 07:38:36 51°18.351 2°51.039 6.6 7 8.1 101920 82
2007-03-26 07:38:41 51°18.359 2°51.035 8.5 9 8.1 101920 82
2007-03-26 07:38:46 51°18.367 2°51.032 7 7 8.1 101930 82
2007-03-26 07:38:51 51°18.375 2°51.03 7.3 6 8.1 101930 82
2007-03-26 07:38:56 51°18.383 2°51.029 7.9 7 8.1 101920 82
2007-03-26 07:39:01 51°18.39 2°51.028 6.5 5 8.1 101920 82
2007-03-26 07:39:06 51°18.396 2°51.027 6.2 7 8.1 101920 82
2007-03-26 07:39:11 51°18.403 2°51.026 7 4 8.1 101920 82
2007-03-26 07:39:16 51°18.41 2°51.026 5.8 6 8.1 101930 82
2007-03-26 07:39:21 51°18.416 2°51.025 6.8 1 8.1 101930 82
2007-03-26 07:39:26 51°18.422 2°51.025 7.4 5 8.1 101920 82
2007-03-26 07:39:31 51°18.428 2°51.025 6.9 4 8.1 101920 82
2007-03-26 07:39:35 51°18.433 2°51.024 6.7 8 8.1 101920 82
2007-03-26 07:39:41 51°18.44 2°51.024 6.1 7 8.1 101920 82
2007-03-26 07:39:46 51°18.446 2°51.023 7.9 10 8.1 101920 82
2007-03-26 07:39:51 51°18.451 2°51.023 6.7 8 8.1 101920 82
2007-03-26 07:39:55 51°18.455 2°51.023 8 6 8.1 101920 82
2007-03-26 07:40:01 51°18.462 2°51.023 8.2 7 8.1 101920 82
2007-03-26 07:40:06 51°18.466 2°51.022 8.6 7 8.1 101920 82
2007-03-26 07:40:11 51°18.471 2°51.022 7.2 5 8.1 101920 82
2007-03-26 07:40:15 51°18.474 2°51.022 7 6 8.1 101920 82
2007-03-26 07:40:21 51°18.478 2°51.022 7.4 7 8.1 101920 82
2007-03-26 07:40:26 51°18.482 2°51.022 7.1 8 8.1 101920 82
2007-03-26 07:40:31 51°18.485 2°51.022 6.3 7 8.1 101920 82
2007-03-26 07:40:35 51°18.487 2°51.022 6.6 2 8.1 101920 82
2007-03-26 07:40:41 51°18.489 2°51.022 6.8 4 8.1 101920 82
2007-03-26 07:40:46 51°18.491 2°51.022 6.1 4 8.1 101920 82
2007-03-26 07:40:51 51°18.493 2°51.022 7.1 5 8.1 101920 82
2007-03-26 07:40:55 51°18.494 2°51.022 6.2 3 8.1 101920 82
2007-03-26 07:41:01 51°18.495 2°51.021 6.3 4 8.1 101920 82
2007-03-26 07:41:06 51°18.496 2°51.021 6.6 3 8.1 101920 82
2007-03-26 07:41:11 51°18.496 2°51.02 6.2 6 8.1 101920 82
2007-03-26 07:41:15 51°18.497 2°51.019 5.6 7 8.1 101920 82
2007-03-26 07:41:21 51°18.497 2°51.018 7.6 10 8.1 101920 82
2007-03-26 07:41:26 51°18.497 2°51.017 7.3 7 8.1 101920 82
2007-03-26 07:41:31 51°18.498 2°51.016 7.1 8 8.1 101920 82
2007-03-26 07:41:35 51°18.498 2°51.015 7.2 12 8.1 101930 82
2007-03-26 07:41:41 51°18.498 2°51.015 7.3 11 8.1 101930 82
2007-03-26 07:41:46 51°18.499 2°51.014 6.7 14 8.1 101920 82
2007-03-26 07:41:51 51°18.499 2°51.013 6.7 16 8.1 101920 82
2007-03-26 07:41:55 51°18.499 2°51.013 6.2 14 8.1 101930 82
2007-03-26 07:42:01 51°18.499 2°51.012 6.8 17 8.1 101930 82
2007-03-26 07:42:06 51°18.499 2°51.011 6.8 19 8.1 101920 82
2007-03-26 07:42:11 51°18.5 2°51.011 6.9 21 8.1 101920 82
2007-03-26 07:42:15 51°18.5 2°51.01 8 17 8.1 101930 82
2007-03-26 07:42:19 51°18.5 2°51.01 7.9 21 8.1 101930 82
2007-03-26 07:42:26 51°18.5 2°51.009 7.4 18 8.1 101930 82
2007-03-26 07:42:31 51°18.501 2°51.008 7.8 20 8.1 101930 82
2007-03-26 07:42:35 51°18.501 2°51.008 7.7 26 8.1 101930 82
2007-03-26 07:42:41 51°18.501 2°51.007 7.2 25 8.1 101930 82
2007-03-26 07:42:46 51°18.501 2°51.007 7 28 8.2 101920 82
2007-03-26 07:42:51 51°18.501 2°51.006 6.8 23 8.2 101920 82
2007-03-26 07:42:55 51°18.502 2°51.006 6.5 26 8.2 101930 82
2007-03-26 07:43:01 51°18.502 2°51.006 7.4 30 8.2 101930 82
2007-03-26 07:43:06 51°18.502 2°51.005 7.8 28 8.1 101920 82
2007-03-26 07:43:11 51°18.502 2°51.005 7.9 29 8.1 101920 82
2007-03-26 07:43:16 51°18.502 2°51.004 6.8 30 8.2 101930 82
2007-03-26 07:43:21 51°18.502 2°51.004 6.7 33 8.2 101930 82
2007-03-26 07:43:26 51°18.502 2°51.004 6.9 29 8.2 101930 82
2007-03-26 07:43:31 51°18.502 2°51.003 7.3 28 8.2 101930 82
2007-03-26 07:43:35 51°18.502 2°51.004 6.8 31 8.2 101930 82
2007-03-26 07:43:41 51°18.502 2°51.003 7.3 30 8.2 101930 82
2007-03-26 07:43:46 51°18.503 2°51.003 6.6 32 8.1 101930 81
2007-03-26 07:43:50 51°18.503 2°51.003 7.7 34 8.1 101930 81
2007-03-26 07:43:55 51°18.503 2°51.002 7.6 34 8.2 101930 82
2007-03-26 07:44:01 51°18.503 2°51.002 7.3 36 8.2 101930 82
2007-03-26 07:44:06 51°18.503 2°51.002 7 35 8.2 101940 82
2007-03-26 07:44:11 51°18.503 2°51.002 7.7 33 8.2 101940 82
2007-03-26 07:44:15 51°18.503 2°51.001 6.9 35 8.2 101930 82
2007-03-26 07:44:21 51°18.504 2°51.001 6.7 36 8.2 101930 82
2007-03-26 07:44:26 51°18.504 2°51 6.7 37 8.2 101930 82
2007-03-26 07:44:31 51°18.504 2°51 6.3 41 8.2 101930 82
2007-03-26 07:44:36 51°18.504 2°51 7.7 35 8.2 101930 81
2007-03-26 07:44:40 51°18.504 2°51 7.3 36 8.2 101930 81
2007-03-26 07:44:46 51°18.505 2°50.999 8.2 38 8.2 101930 81
2007-03-26 07:44:51 51°18.505 2°50.999 6.9 35 8.2 101930 81
2007-03-26 07:44:56 51°18.505 2°50.999 6.3 34 8.2 101930 82
2007-03-26 07:45:01 51°18.505 2°50.998 6.5 37 8.2 101930 82
2007-03-26 07:45:06 51°18.506 2°50.998 7.6 39 8.2 101930 82
2007-03-26 07:45:11 51°18.506 2°50.997 8.3 38 8.2 101930 82
2007-03-26 07:45:16 51°18.506 2°50.997 8.2 39 8.2 101930 81
2007-03-26 07:45:21 51°18.507 2°50.997 7.5 40 8.2 101930 81
2007-03-26 07:45:26 51°18.507 2°50.996 7.9 35 8.2 101920 82
2007-03-26 07:45:31 51°18.507 2°50.996 7.1 38 8.2 101920 82
2007-03-26 07:45:36 51°18.508 2°50.995 7 39 8.2 101930 81
2007-03-26 07:45:41 51°18.508 2°50.995 7.6 38 8.2 101930 81
2007-03-26 07:45:46 51°18.508 2°50.994 6.6 33 8.2 101930 81
2007-03-26 07:45:50 51°18.509 2°50.994 7.3 37 8.2 101930 81
2007-03-26 07:45:56 51°18.509 2°50.993 6.4 37 8.2 101930 81
2007-03-26 07:46:01 51°18.509 2°50.992 7.4 39 8.2 101930 81
2007-03-26 07:46:06 51°18.509 2°50.992 6.8 39 8.2 101930 81
2007-03-26 07:46:11 51°18.51 2°50.991 6 41 8.2 101930 81
2007-03-26 07:46:16 51°18.51 2°50.99 7.5 37 8.2 101930 81
2007-03-26 07:46:21 51°18.51 2°50.99 7.6 36 8.2 101930 81
2007-03-26 07:46:26 51°18.51 2°50.989 7.2 39 8.2 101920 81
2007-03-26 07:46:31 51°18.511 2°50.988 7.8 36 8.2 101920 81
2007-03-26 07:46:36 51°18.511 2°50.987 7 36 8.2 101930 81
2007-03-26 07:46:41 51°18.512 2°50.987 7.8 37 8.2 101930 81
2007-03-26 07:46:46 51°18.512 2°50.986 6.9 37 8.2 101930 81
2007-03-26 07:46:51 51°18.512 2°50.985 6.1 33 8.2 101930 81
2007-03-26 07:46:56 51°18.513 2°50.984 6.6 36 8.2 101930 81
2007-03-26 07:47:00 51°18.513 2°50.984 6.6 34 8.2 101930 81
2007-03-26 07:47:06 51°18.513 2°50.983 7 39 8.2 101920 81
2007-03-26 07:47:11 51°18.514 2°50.982 8.7 38 8.2 101920 81
2007-03-26 07:47:16 51°18.514 2°50.981 7.3 32 8.2 101930 81
2007-03-26 07:47:21 51°18.514 2°50.98 7.6 34 8.2 101930 81
2007-03-26 07:47:26 51°18.515 2°50.979 7.4 34 8.2 101930 81
2007-03-26 07:47:31 51°18.515 2°50.978 7.1 35 8.2 101930 81
2007-03-26 07:47:36 51°18.515 2°50.977 7.5 30 8.2 101930 81
2007-03-26 07:47:41 51°18.516 2°50.976 7.4 33 8.2 101930 81
2007-03-26 07:47:46 51°18.516 2°50.975 7.6 35 8.2 101920 81
2007-03-26 07:47:51 51°18.516 2°50.974 7.5 35 8.2 101920 81
2007-03-26 07:47:56 51°18.517 2°50.973 7.4 37 8.2 101940 81
2007-03-26 07:48:01 51°18.517 2°50.972 6.9 33 8.2 101940 81
2007-03-26 07:48:06 51°18.518 2°50.971 6.7 37 8.2 101920 81
2007-03-26 07:48:11 51°18.518 2°50.97 6.5 34 8.2 101920 81
2007-03-26 07:48:16 51°18.519 2°50.969 8.1 33 8.2 101930 81
2007-03-26 07:48:21 51°18.519 2°50.968 6.8 32 8.2 101930 81
2007-03-26 07:48:26 51°18.519 2°50.967 4.4 32 8.2 101920 81
2007-03-26 07:48:31 51°18.52 2°50.966 7.3 28 8.2 101920 81
2007-03-26 07:48:35 51°18.52 2°50.965 7.5 28 8.2 101930 81
2007-03-26 07:48:41 51°18.521 2°50.964 6 29 8.2 101930 81
2007-03-26 07:48:46 51°18.522 2°50.964 6.8 33 8.2 101920 81
2007-03-26 07:48:51 51°18.522 2°50.963 6.4 28 8.2 101920 81
2007-03-26 07:48:55 51°18.523 2°50.962 6.1 29 8.3 101930 81
2007-03-26 07:49:00 51°18.523 2°50.961 6.4 33 8.3 101930 81
2007-03-26 07:49:06 51°18.524 2°50.96 7.1 32 8.3 101920 81
2007-03-26 07:49:11 51°18.524 2°50.959 8 24 8.3 101920 81
2007-03-26 07:49:16 51°18.525 2°50.959 7.3 29 8.3 101930 81
2007-03-26 07:49:20 51°18.525 2°50.958 7.1 26 8.3 101930 81
2007-03-26 07:49:26 51°18.526 2°50.957 7.1 26 8.3 101930 81
2007-03-26 07:49:31 51°18.527 2°50.956 6.8 28 8.3 101930 81
2007-03-26 07:49:36 51°18.527 2°50.955 7.7 29 8.3 101930 81
2007-03-26 07:49:41 51°18.528 2°50.954 7.9 27 8.3 101930 81
2007-03-26 07:49:46 51°18.528 2°50.953 7.3 29 8.3 101930 81
2007-03-26 07:49:51 51°18.528 2°50.952 8 28 8.3 101930 81
2007-03-26 07:49:56 51°18.529 2°50.951 7.1 29 8.3 101920 81
2007-03-26 07:50:01 51°18.53 2°50.95 6.7 30 8.3 101920 81
2007-03-26 07:50:05 51°18.53 2°50.949 8 27 8.3 101930 81
2007-03-26 07:50:11 51°18.531 2°50.948 7.1 25 8.3 101930 81
2007-03-26 07:50:16 51°18.531 2°50.947 7.4 26 8.3 101930 81
2007-03-26 07:50:21 51°18.532 2°50.946 7.5 27 8.3 101930 81
2007-03-26 07:50:26 51°18.532 2°50.945 7.7 26 8.3 101940 81
2007-03-26 07:50:31 51°18.533 2°50.944 8.1 26 8.3 101940 81
2007-03-26 07:50:36 51°18.533 2°50.943 7.4 25 8.3 101930 81
2007-03-26 07:50:41 51°18.534 2°50.942 7.7 26 8.3 101930 81
2007-03-26 07:50:46 51°18.534 2°50.941 8.1 26 8.3 101930 81
2007-03-26 07:50:51 51°18.535 2°50.94 8.4 26 8.3 101930 81
2007-03-26 07:50:55 51°18.535 2°50.939 8 26 8.3 101940 81
2007-03-26 07:51:01 51°18.536 2°50.938 7.6 25 8.3 101940 81
2007-03-26 07:51:06 51°18.536 2°50.937 7.5 27 8.3 101930 81
2007-03-26 07:51:11 51°18.537 2°50.936 7.3 24 8.3 101930 81
2007-03-26 07:51:15 51°18.537 2°50.935 6.9 25 8.3 101930 81
2007-03-26 07:51:19 51°18.537 2°50.934 6.8 28 8.3 101930 81
2007-03-26 07:51:25 51°18.538 2°50.933 7.9 23 8.3 101930 81
2007-03-26 07:51:31 51°18.539 2°50.932 8.4 25 8.3 101930 81
2007-03-26 07:51:35 51°18.539 2°50.931 7.8 26 8.3 101930 81
2007-03-26 07:51:41 51°18.539 2°50.93 7.3 26 8.3 101930 81
2007-03-26 07:51:46 51°18.54 2°50.929 7.8 27 8.3 101930 81
2007-03-26 07:51:51 51°18.54 2°50.928 7.7 28 8.3 101930 81
2007-03-26 07:51:55 51°18.541 2°50.927 8.2 26 8.3 101930 81
2007-03-26 07:52:01 51°18.541 2°50.926 6.7 28 8.3 101930 81
2007-03-26 07:52:06 51°18.542 2°50.925 7.4 28 8.3 101940 81
2007-03-26 07:52:10 51°18.542 2°50.925 7.1 27 8.3 101940 81
2007-03-26 07:52:15 51°18.543 2°50.924 6.1 24 8.3 101930 81
2007-03-26 07:52:21 51°18.543 2°50.923 6.7 27 8.3 101930 81
2007-03-26 07:52:26 51°18.543 2°50.922 7.5 26 8.3 101930 81
2007-03-26 07:52:30 51°18.543 2°50.921 7.8 25 8.3 101930 81
2007-03-26 07:52:35 51°18.544 2°50.92 7.3 30 8.3 101930 80
2007-03-26 07:52:41 51°18.544 2°50.919 8.4 26 8.3 101930 80
2007-03-26 07:52:46 51°18.545 2°50.918 7.2 27 8.3 101930 81
2007-03-26 07:52:51 51°18.545 2°50.916 7.6 29 8.3 101930 81
2007-03-26 07:52:55 51°18.546 2°50.915 7 29 8.3 101930 81
2007-03-26 07:53:01 51°18.548 2°50.912 6.6 28 8.3 101930 81
2007-03-26 07:53:06 51°18.55 2°50.909 6.2 33 8.3 101930 81
2007-03-26 07:53:11 51°18.552 2°50.907 6.7 32 8.3 101930 81
2007-03-26 07:53:15 51°18.553 2°50.904 7.2 31 8.3 101940 80
2007-03-26 07:53:21 51°18.555 2°50.901 7.5 30 8.3 101940 80
2007-03-26 07:53:26 51°18.557 2°50.898 6.8 30 8.3 101940 81
2007-03-26 07:53:31 51°18.559 2°50.895 7.6 31 8.3 101940 81
2007-03-26 07:53:36 51°18.562 2°50.889 7.4 28 8.3 101940 81
2007-03-26 07:53:41 51°18.567 2°50.883 7.1 23 8.3 101940 81
2007-03-26 07:53:46 51°18.572 2°50.875 6.2 20 8.3 101940 81
2007-03-26 07:53:50 51°18.577 2°50.87 7.5 14 8.3 101940 81
2007-03-26 07:53:55 51°18.585 2°50.863 8.1 10 8.3 101940 80
2007-03-26 07:54:01 51°18.595 2°50.856 7.3 7 8.3 101940 80
2007-03-26 07:54:06 51°18.605 2°50.851 7.1 5 8.3 101930 80
2007-03-26 07:54:11 51°18.616 2°50.849 8.9 1 8.3 101930 80
2007-03-26 07:54:16 51°18.627 2°50.847 8.5 358 8.3 101930 80
2007-03-26 07:54:21 51°18.639 2°50.848 10.7 357 8.3 101930 80
2007-03-26 07:54:26 51°18.651 2°50.85 10.3 353 8.3 101920 81
2007-03-26 07:54:31 51°18.662 2°50.853 10.9 351 8.3 101920 81
2007-03-26 07:54:36 51°18.674 2°50.859 11.3 348 8.3 101920 81
2007-03-26 07:54:41 51°18.686 2°50.866 11.3 347 8.3 101920 81
2007-03-26 07:54:46 51°18.698 2°50.875 10.4 347 8.3 101930 81
2007-03-26 07:54:51 51°18.709 2°50.886 12.9 345 8.3 101930 81
2007-03-26 07:54:56 51°18.72 2°50.897 12.5 344 8.3 101910 80
2007-03-26 07:55:01 51°18.732 2°50.908 12.3 344 8.3 101910 80
2007-03-26 07:55:06 51°18.745 2°50.921 13.1 344 8.3 101920 81
2007-03-26 07:55:11 51°18.759 2°50.935 13 344 8.3 101920 81
2007-03-26 07:55:16 51°18.774 2°50.949 13.3 344 8.3 101920 81
2007-03-26 07:55:21 51°18.789 2°50.964 13.2 344 8.3 101920 81
2007-03-26 07:55:26 51°18.804 2°50.978 14.2 345 8.2 101910 81
2007-03-26 07:55:31 51°18.82 2°50.993 14.2 343 8.2 101910 81
2007-03-26 07:55:35 51°18.833 2°51.005 13.8 343 8.2 101890 81
2007-03-26 07:55:41 51°18.852 2°51.024 13.2 341 8.2 101890 81
2007-03-26 07:55:46 51°18.868 2°51.04 13.7 342 8.2 101890 81
2007-03-26 07:55:51 51°18.884 2°51.056 13.2 343 8.2 101890 81
2007-03-26 07:55:55 51°18.897 2°51.069 13.4 342 8.2 101900 81
2007-03-26 07:56:00 51°18.913 2°51.086 14.4 341 8.2 101900 81
2007-03-26 07:56:06 51°18.932 2°51.107 14.4 343 8.2 101900 81
2007-03-26 07:56:11 51°18.948 2°51.124 13.8 342 8.2 101900 81
2007-03-26 07:56:16 51°18.964 2°51.141 13.9 341 8.2 101900 81
2007-03-26 07:56:21 51°18.979 2°51.16 13.9 282 8.2 101900 81
2007-03-26 07:56:26 51°18.994 2°51.178 14.2 339 8.2 101900 81
2007-03-26 07:56:31 51°19.009 2°51.197 14.8 340 8.2 101900 81
2007-03-26 07:56:36 51°19.024 2°51.216 14.8 341 8.3 101910 81
2007-03-26 07:56:41 51°19.039 2°51.236 15.1 339 8.3 101910 81
2007-03-26 07:56:46 51°19.053 2°51.256 13.8 339 8.2 101890 81
2007-03-26 07:56:51 51°19.067 2°51.276 15.3 338 8.2 101890 81
2007-03-26 07:56:56 51°19.081 2°51.298 14.9 339 8.2 101900 81
2007-03-26 07:57:01 51°19.095 2°51.319 15.5 338 8.2 101900 81
2007-03-26 07:57:06 51°19.109 2°51.34 14.6 339 8.3 101890 81
2007-03-26 07:57:11 51°19.122 2°51.362 15.6 339 8.3 101890 81
2007-03-26 07:57:16 51°19.136 2°51.383 14.3 338 8.3 101910 81
2007-03-26 07:57:21 51°19.149 2°51.405 15.1 338 8.3 101910 81
2007-03-26 07:57:26 51°19.163 2°51.427 15.9 339 8.3 101900 81
2007-03-26 07:57:31 51°19.176 2°51.449 14.4 339 8.3 101900 81
2007-03-26 07:57:36 51°19.189 2°51.47 14 337 8.3 101900 81
2007-03-26 07:57:41 51°19.202 2°51.492 14.2 337 8.3 101900 81
2007-03-26 07:57:46 51°19.215 2°51.515 15.3 337 8.3 101900 81
2007-03-26 07:57:51 51°19.228 2°51.537 15.2 338 8.3 101900 81
2007-03-26 07:57:55 51°19.239 2°51.555 15 338 8.3 101890 81
2007-03-26 07:58:01 51°19.253 2°51.583 14.7 336 8.3 101890 81
2007-03-26 07:58:06 51°19.266 2°51.606 14.5 336 8.3 101910 81
2007-03-26 07:58:11 51°19.278 2°51.63 14.4 336 8.3 101910 81
2007-03-26 07:58:15 51°19.287 2°51.649 14.6 335 8.3 101900 81
2007-03-26 07:58:20 51°19.299 2°51.673 13.6 280 8.3 101900 81
2007-03-26 07:58:26 51°19.311 2°51.703 15.3 334 8.3 101900 81
2007-03-26 07:58:31 51°19.322 2°51.729 14.4 333 8.3 101900 81
2007-03-26 07:58:36 51°19.33 2°51.756 15 333 8.3 101910 81
2007-03-26 07:58:41 51°19.339 2°51.783 13.5 331 8.3 101910 81
2007-03-26 07:58:46 51°19.346 2°51.81 14.3 331 8.3 101910 81
2007-03-26 07:58:51 51°19.353 2°51.838 14.6 329 8.3 101910 81
2007-03-26 07:58:56 51°19.359 2°51.867 14.7 332 8.3 101900 81
2007-03-26 07:59:01 51°19.365 2°51.895 14.3 329 8.3 101900 81
2007-03-26 07:59:06 51°19.37 2°51.924 14.9 331 8.3 101890 81
2007-03-26 07:59:11 51°19.375 2°51.952 13.4 329 8.3 101890 81
2007-03-26 07:59:16 51°19.38 2°51.981 14.1 330 8.3 101890 81
2007-03-26 07:59:21 51°19.386 2°52.01 14.8 330 8.3 101890 81
2007-03-26 07:59:26 51°19.391 2°52.039 16 328 8.3 101900 81
2007-03-26 07:59:31 51°19.396 2°52.068 15.8 329 8.3 101900 81
2007-03-26 07:59:36 51°19.4 2°52.097 14.6 329 8.3 101900 81
2007-03-26 07:59:41 51°19.406 2°52.125 16.2 330 8.3 101900 81
2007-03-26 07:59:46 51°19.41 2°52.154 16.3 329 8.3 101900 81
2007-03-26 07:59:51 51°19.416 2°52.182 16.4 330 8.3 101900 81
2007-03-26 07:59:56 51°19.42 2°52.211 15.9 330 8.3 101910 81
2007-03-26 08:00:00 51°19.425 2°52.234 15.3 329 8.3 101910 81
2007-03-26 08:00:05 51°19.43 2°52.263 14.4 329 8.3 101900 80
2007-03-26 08:00:11 51°19.436 2°52.297 15 330 8.3 101900 80
2007-03-26 08:00:15 51°19.44 2°52.32 16.1 327 8.3 101900 80
2007-03-26 08:00:21 51°19.446 2°52.354 16.4 329 8.3 101900 80
2007-03-26 08:00:26 51°19.451 2°52.383 17.2 330 8.3 101910 80
2007-03-26 08:00:31 51°19.456 2°52.411 15.2 329 8.3 101910 80
2007-03-26 08:00:35 51°19.46 2°52.434 16.2 329 8.3 101890 80
2007-03-26 08:00:39 51°19.464 2°52.457 16.7 330 8.3 101890 80
2007-03-26 08:00:46 51°19.471 2°52.497 16.3 330 8.3 101910 80
2007-03-26 08:00:51 51°19.477 2°52.525 15.3 329 8.3 101910 80
2007-03-26 08:00:56 51°19.482 2°52.554 15.7 330 8.3 101890 80
2007-03-26 08:00:59 51°19.485 2°52.571 15.3 330 8.3 101890 80
2007-03-26 08:01:06 51°19.492 2°52.611 16 331 8.3 101900 80
2007-03-26 08:01:11 51°19.498 2°52.639 14.8 331 8.3 101900 80
2007-03-26 08:01:16 51°19.503 2°52.668 15.8 329 8.3 101890 80
2007-03-26 08:01:20 51°19.508 2°52.691 16.2 332 8.3 101890 80
2007-03-26 08:01:26 51°19.514 2°52.725 15.3 329 8.3 101890 80
2007-03-26 08:01:31 51°19.52 2°52.753 15.7 332 8.3 101890 80
2007-03-26 08:01:36 51°19.524 2°52.782 14.6 328 8.3 101890 80
2007-03-26 08:01:41 51°19.531 2°52.81 14.6 331 8.3 101890 80
2007-03-26 08:01:46 51°19.536 2°52.839 15.9 329 8.3 101890 80
2007-03-26 08:01:50 51°19.54 2°52.862 15.5 330 8.3 101890 80
2007-03-26 08:01:56 51°19.547 2°52.896 15.1 329 8.3 101890 80
2007-03-26 08:02:01 51°19.552 2°52.925 15.7 329 8.3 101890 80
2007-03-26 08:02:05 51°19.557 2°52.948 13.5 330 8.3 101890 80
2007-03-26 08:02:10 51°19.562 2°52.977 14.2 330 8.3 101890 80
2007-03-26 08:02:16 51°19.568 2°53.011 14.4 330 8.3 101890 80
2007-03-26 08:02:21 51°19.574 2°53.039 14.2 284 8.3 101890 80
2007-03-26 08:02:26 51°19.579 2°53.068 14.9 330 8.3 101900 80
2007-03-26 08:02:31 51°19.585 2°53.097 16.3 332 8.3 101900 80
2007-03-26 08:02:35 51°19.589 2°53.119 16.1 329 8.4 101900 80
2007-03-26 08:02:41 51°19.596 2°53.154 15.1 330 8.4 101900 80
2007-03-26 08:02:46 51°19.602 2°53.182 15 329 8.4 101890 80
2007-03-26 08:02:51 51°19.607 2°53.211 14.6 331 8.4 101890 80
2007-03-26 08:02:55 51°19.612 2°53.233 14.9 330 8.4 101890 80
2007-03-26 08:02:59 51°19.616 2°53.256 15.5 331 8.4 101890 80
2007-03-26 08:03:06 51°19.624 2°53.296 15.4 327 8.4 101900 80
2007-03-26 08:03:11 51°19.63 2°53.324 15 329 8.4 101900 80
2007-03-26 08:03:15 51°19.634 2°53.347 15.3 329 8.3 101900 80
2007-03-26 08:03:20 51°19.64 2°53.376 15.8 329 8.3 101900 80
2007-03-26 08:03:26 51°19.646 2°53.41 15 329 8.4 101910 80
2007-03-26 08:03:31 51°19.652 2°53.438 17.1 329 8.4 101910 80
2007-03-26 08:03:36 51°19.658 2°53.466 15.6 330 8.3 101890 80
2007-03-26 08:03:40 51°19.662 2°53.489 16.7 330 8.3 101890 80
2007-03-26 08:03:46 51°19.669 2°53.523 15.7 330 8.3 101890 80
2007-03-26 08:03:51 51°19.674 2°53.552 15.8 331 8.3 101890 80
2007-03-26 08:03:56 51°19.68 2°53.58 16.1 330 8.3 101880 79
2007-03-26 08:04:01 51°19.685 2°53.609 14.9 332 8.3 101880 79
2007-03-26 08:04:06 51°19.691 2°53.637 15.7 330 8.3 101890 79
2007-03-26 08:04:11 51°19.696 2°53.666 15.5 329 8.3 101890 79
2007-03-26 08:04:16 51°19.701 2°53.694 16.3 330 8.3 101890 79
2007-03-26 08:04:21 51°19.707 2°53.723 15.5 285 8.3 101890 79
2007-03-26 08:04:26 51°19.712 2°53.751 15.4 334 8.4 101890 79
2007-03-26 08:04:31 51°19.718 2°53.779 14.3 332 8.4 101890 79
2007-03-26 08:04:35 51°19.722 2°53.802 14.2 330 8.3 101890 79
2007-03-26 08:04:41 51°19.728 2°53.836 14.9 329 8.3 101890 79
2007-03-26 08:04:46 51°19.734 2°53.865 16.3 332 8.3 101900 79
2007-03-26 08:04:51 51°19.739 2°53.893 16 330 8.3 101900 79
2007-03-26 08:04:55 51°19.744 2°53.916 15.9 332 8.4 101910 79
2007-03-26 08:05:01 51°19.75 2°53.95 14.3 329 8.4 101910 79
2007-03-26 08:05:06 51°19.756 2°53.979 13.4 330 8.4 101890 79
2007-03-26 08:05:11 51°19.762 2°54.007 15.7 332 8.4 101890 79
2007-03-26 08:05:15 51°19.766 2°54.03 15.4 329 8.3 101900 79
2007-03-26 08:05:19 51°19.771 2°54.053 14.9 329 8.3 101900 79
2007-03-26 08:05:26 51°19.779 2°54.093 14 331 8.4 101890 79
2007-03-26 08:05:31 51°19.784 2°54.121 14.4 330 8.4 101890 79
2007-03-26 08:05:36 51°19.789 2°54.15 14.6 328 8.4 101910 79
2007-03-26 08:05:39 51°19.793 2°54.167 15.4 329 8.4 101910 79
2007-03-26 08:05:46 51°19.801 2°54.207 15.3 329 8.4 101900 79
2007-03-26 08:05:51 51°19.806 2°54.235 15.9 331 8.4 101900 79
2007-03-26 08:05:56 51°19.812 2°54.264 15.2 331 8.4 101890 79
2007-03-26 08:06:00 51°19.816 2°54.287 15.2 331 8.4 101890 79
2007-03-26 08:06:06 51°19.823 2°54.321 15.8 331 8.4 101900 79
2007-03-26 08:06:11 51°19.829 2°54.35 15.7 329 8.4 101900 79
2007-03-26 08:06:16 51°19.834 2°54.378 15.3 330 8.4 101890 79
2007-03-26 08:06:21 51°19.84 2°54.407 16.9 282 8.4 101890 79
2007-03-26 08:06:26 51°19.845 2°54.436 15.8 331 8.4 101880 79
2007-03-26 08:06:31 51°19.851 2°54.464 14.4 331 8.4 101880 79
2007-03-26 08:06:36 51°19.856 2°54.493 15.5 330 8.4 101890 79
2007-03-26 08:06:41 51°19.862 2°54.522 15.9 331 8.4 101890 79
2007-03-26 08:06:46 51°19.868 2°54.551 16.2 331 8.3 101900 79
2007-03-26 08:06:51 51°19.874 2°54.579 15.5 332 8.3 101900 79
2007-03-26 08:06:55 51°19.878 2°54.602 15.7 329 8.3 101920 79
2007-03-26 08:07:01 51°19.885 2°54.636 16 331 8.3 101920 79
2007-03-26 08:07:06 51°19.891 2°54.665 16.8 328 8.3 101880 79
2007-03-26 08:07:11 51°19.896 2°54.693 16.4 330 8.3 101880 79
2007-03-26 08:07:15 51°19.901 2°54.716 16.2 331 8.3 101890 79
2007-03-26 08:07:21 51°19.907 2°54.751 14.6 330 8.3 101890 79
2007-03-26 08:07:26 51°19.913 2°54.779 16.7 331 8.4 101890 78
2007-03-26 08:07:31 51°19.918 2°54.807 16.3 330 8.4 101890 78
2007-03-26 08:07:35 51°19.923 2°54.83 15.9 331 8.4 101890 78
2007-03-26 08:07:39 51°19.927 2°54.853 17.5 330 8.4 101890 78
2007-03-26 08:07:46 51°19.935 2°54.893 16.6 330 8.3 101900 78
2007-03-26 08:07:51 51°19.941 2°54.921 16.7 332 8.3 101900 78
2007-03-26 08:07:56 51°19.947 2°54.949 16 331 8.4 101890 78
2007-03-26 08:08:01 51°19.953 2°54.978 16.3 329 8.4 101890 78
2007-03-26 08:08:06 51°19.959 2°55.006 15.3 330 8.4 101880 78
2007-03-26 08:08:11 51°19.965 2°55.035 16.2 329 8.4 101880 78
2007-03-26 08:08:16 51°19.97 2°55.063 15.2 331 8.3 101880 78
2007-03-26 08:08:21 51°19.976 2°55.092 14.7 279 8.3 101880 78
2007-03-26 08:08:26 51°19.981 2°55.12 14.2 330 8.4 101900 78
2007-03-26 08:08:31 51°19.986 2°55.148 14.8 331 8.4 101900 78
2007-03-26 08:08:36 51°19.992 2°55.176 15.6 330 8.4 101890 78
2007-03-26 08:08:41 51°19.997 2°55.205 15.6 331 8.4 101890 78
2007-03-26 08:08:46 51°20.003 2°55.234 15.7 329 8.4 101900 78
2007-03-26 08:08:51 51°20.008 2°55.262 16 330 8.4 101900 78
2007-03-26 08:08:56 51°20.014 2°55.291 15.4 330 8.4 101890 78
2007-03-26 08:09:01 51°20.019 2°55.32 16.3 329 8.4 101890 78
2007-03-26 08:09:06 51°20.025 2°55.348 15.7 330 8.3 101890 78
2007-03-26 08:09:11 51°20.031 2°55.377 14.8 330 8.3 101890 78
2007-03-26 08:09:15 51°20.036 2°55.399 15.2 329 8.4 101890 78
2007-03-26 08:09:21 51°20.042 2°55.434 15.5 330 8.4 101890 78
2007-03-26 08:09:26 51°20.048 2°55.462 15.4 331 8.4 101900 78
2007-03-26 08:09:31 51°20.053 2°55.49 15.9 331 8.4 101900 78
2007-03-26 08:09:35 51°20.058 2°55.513 15.3 331 8.4 101880 78
2007-03-26 08:09:39 51°20.063 2°55.535 15.4 331 8.4 101880 78
2007-03-26 08:09:46 51°20.07 2°55.575 14.4 329 8.4 101890 78
2007-03-26 08:09:51 51°20.076 2°55.603 15 331 8.4 101890 78
2007-03-26 08:09:55 51°20.08 2°55.626 14.9 328 8.4 101900 78
2007-03-26 08:09:59 51°20.085 2°55.649 15.4 332 8.4 101900 78
2007-03-26 08:10:06 51°20.093 2°55.689 14.6 329 8.4 101900 78
2007-03-26 08:10:11 51°20.099 2°55.717 16.1 330 8.4 101900 78
2007-03-26 08:10:16 51°20.105 2°55.746 15.5 329 8.4 101890 78
2007-03-26 08:10:21 51°20.11 2°55.774 16.5 283 8.4 101890 78
2007-03-26 08:10:26 51°20.116 2°55.803 16.6 330 8.4 101890 78
2007-03-26 08:10:31 51°20.122 2°55.832 16.7 330 8.4 101890 78
2007-03-26 08:10:36 51°20.128 2°55.86 15.8 331 8.4 101900 78
2007-03-26 08:10:41 51°20.133 2°55.889 15.2 329 8.4 101900 78
2007-03-26 08:10:46 51°20.139 2°55.917 16.7 329 8.4 101890 78
2007-03-26 08:10:50 51°20.143 2°55.941 15.8 330 8.4 101890 78
2007-03-26 08:10:56 51°20.15 2°55.974 15.9 330 8.4 101890 78
2007-03-26 08:11:01 51°20.155 2°56.003 15.3 330 8.4 101890 78
2007-03-26 08:11:06 51°20.161 2°56.031 14.3 331 8.4 101900 78
2007-03-26 08:11:11 51°20.166 2°56.06 14.3 331 8.4 101900 78
2007-03-26 08:11:15 51°20.171 2°56.083 14.5 331 8.4 101890 78
2007-03-26 08:11:21 51°20.178 2°56.117 15.1 283 8.4 101890 78
2007-03-26 08:11:26 51°20.183 2°56.145 14.9 333 8.4 101900 78
2007-03-26 08:11:31 51°20.189 2°56.174 15.6 333 8.4 101900 78
2007-03-26 08:11:35 51°20.193 2°56.198 14.7 330 8.4 101890 78
2007-03-26 08:11:41 51°20.2 2°56.232 14.8 331 8.4 101890 78
2007-03-26 08:11:46 51°20.206 2°56.26 15.3 332 8.4 101890 78
2007-03-26 08:11:51 51°20.211 2°56.289 16.2 331 8.4 101890 78
2007-03-26 08:11:55 51°20.216 2°56.312 16.1 331 8.4 101890 78
2007-03-26 08:12:01 51°20.223 2°56.346 15.3 331 8.4 101890 78
2007-03-26 08:12:06 51°20.228 2°56.375 15.5 331 8.4 101900 78
2007-03-26 08:12:11 51°20.234 2°56.403 14.4 332 8.4 101900 78
2007-03-26 08:12:15 51°20.238 2°56.426 14.9 330 8.4 101890 78
2007-03-26 08:12:20 51°20.243 2°56.455 16.5 331 8.4 101890 78
2007-03-26 08:12:26 51°20.25 2°56.489 16.1 331 8.4 101900 78
2007-03-26 08:12:31 51°20.256 2°56.518 15.3 331 8.4 101900 78
2007-03-26 08:12:36 51°20.262 2°56.547 14.1 332 8.4 101890 78
2007-03-26 08:12:41 51°20.267 2°56.575 15.2 331 8.4 101890 78
2007-03-26 08:12:46 51°20.273 2°56.604 14.8 330 8.4 101900 78
2007-03-26 08:12:51 51°20.278 2°56.632 15.4 330 8.4 101900 78
2007-03-26 08:12:56 51°20.284 2°56.661 15.4 332 8.4 101910 78
2007-03-26 08:13:01 51°20.29 2°56.69 15.2 330 8.4 101910 78
2007-03-26 08:13:06 51°20.296 2°56.718 15.1 332 8.4 101910 78
2007-03-26 08:13:10 51°20.3 2°56.741 15.3 333 8.4 101910 78
2007-03-26 08:13:16 51°20.308 2°56.776 15.3 331 8.4 101900 78
2007-03-26 08:13:21 51°20.313 2°56.805 16.1 279 8.4 101900 78
2007-03-26 08:13:25 51°20.318 2°56.827 14.9 330 8.4 101910 78
2007-03-26 08:13:30 51°20.323 2°56.856 16.2 331 8.4 101910 78
2007-03-26 08:13:35 51°20.329 2°56.885 15.2 331 8.4 101900 78
2007-03-26 08:13:41 51°20.336 2°56.919 15.9 333 8.4 101900 78
2007-03-26 08:13:46 51°20.342 2°56.948 14.7 332 8.4 101900 78
2007-03-26 08:13:51 51°20.347 2°56.977 15.2 332 8.4 101900 78
2007-03-26 08:13:55 51°20.352 2°57 14 331 8.4 101910 78
2007-03-26 08:14:01 51°20.359 2°57.034 15.5 331 8.4 101910 78